This is the latest recevied weather packets stored in our database for station/object W0SS-13. If no packets are shown the sender has not sent any weather packets the latest 10 day(s).
| Time | Temp. | Humidity | Pressure | Rain* | Wind** | Luminosity | Snow |
|---|---|---|---|---|---|---|---|
| 1777642601 | 10.56° C | 69% | 1020.3 hPa | 0 mm | - | 264 W/m² | - |
| 1777642298 | 10° C | 68% | 1020.1 hPa | 0 mm | - | 248 W/m² | - |
| 1777641994 | 9.44° C | 71% | 1020.4 hPa | 0 mm | - | 232 W/m² | - |
| 1777641690 | 8.89° C | 71% | 1020.1 hPa | 0 mm | - | 214 W/m² | - |
| 1777641385 | 8.89° C | 73% | 1020.2 hPa | 0 mm | - | 194 W/m² | - |
| 1777641081 | 8.33° C | 74% | 1020.2 hPa | 0 mm | - | 170 W/m² | - |
| 1777640777 | 7.78° C | 74% | 1020.4 hPa | 0 mm | - | 145 W/m² | - |
| 1777640171 | 7.78° C | 75% | 1020.2 hPa | 0 mm | - | 107 W/m² | - |
| 1777639262 | 6.67° C | 88% | 1020 hPa | 0 mm | - | 73 W/m² | - |
| 1777638654 | 5° C | 90% | 1019.9 hPa | 0 mm | - | 59 W/m² | - |
| 1777638350 | 5° C | 90% | 1020.2 hPa | 0 mm | - | 53 W/m² | - |
| 1777638046 | 3.89° C | 90% | 1020.3 hPa | 0 mm | - | 48 W/m² | - |
| 1777637743 | 3.33° C | 90% | 1020.4 hPa | 0 mm | - | 39 W/m² | - |
| 1777637440 | 3.33° C | 91% | 1020.2 hPa | 0 mm | - | 29 W/m² | - |
| 1777636834 | 3.33° C | 91% | 1020.4 hPa | 0 mm | - | 25 W/m² | - |
| 1777636530 | 3.33° C | 91% | 1020 hPa | 0 mm | - | 22 W/m² | - |
| 1777635926 | 3.33° C | 92% | 1020.2 hPa | 0 mm | - | 16 W/m² | - |
| 1777635622 | 2.78° C | 92% | 1020.1 hPa | 0 mm | - | 13 W/m² | - |
| 1777635319 | 2.78° C | 92% | 1020.1 hPa | 0 mm | - | 10 W/m² | - |
| 1777635015 | 2.78° C | 91% | 1020.2 hPa | 0 mm | - | 7 W/m² | - |
| 1777634711 | 3.33° C | 91% | 1020.1 hPa | 0 mm | - | 4 W/m² | - |
| 1777634410 | 2.78° C | 91% | 1020 hPa | 0 mm | - | 2 W/m² | - |
| 1777634106 | 2.78° C | 91% | 1019.9 hPa | 0 mm | - | 1 W/m² | - |
| 1777633802 | 2.78° C | 91% | 1020 hPa | 0 mm | - | 0 W/m² | - |
| 1777633501 | 2.78° C | 91% | 1020.1 hPa | 0 mm | - | 0 W/m² | - |
* Rain latest hour (hover to see other rain measurements)
** Current wind speed in m/s (hover to see current wind gust speed)